METAR Data
IDs: Format: Raw Decoded Include TAF

Data at: 1551 UTC 21 Sep 2018

KFDR 211541Z AUTO 01013KT 2 1/2SM RA BR SCT005 BKN015 OVC075 22/22 A2997 RMK AO2 P0025 T02170217 $
KFDR 211528Z AUTO 02014KT 2SM RA BR SCT006 BKN011 OVC045 22/22 A2997 RMK AO2 P0019 T02170217 $
KFDR 211515Z AUTO 00000KT 1 1/2SM RA BR BKN006 BKN011 OVC035 22/22 A2997 RMK AO2 P0011 T02220217 $
KFDR 211502Z AUTO 00000KT 1 1/4SM RA BR SCT004 BKN015 OVC033 22/22 A2997 RMK AO2 P0005 T02170217 $
KFDR 211453Z AUTO 28004KT 1 1/2SM RA BR BKN006 OVC034 22/22 A2997 RMK AO2 RAB00 SLP134 P0097 60097 T02220222 53022 $
KFDR 211446Z AUTO 10003KT 1SM +RA BR SCT004 OVC008 22/22 A2996 RMK AO2 RAB00 P0093 T02220222 $
KFDR 211436Z AUTO 09008KT 1/2SM +RA FG OVC004 22/22 A2995 RMK AO2 RAB00 P0080 T02220222 $
KFDR 211427Z AUTO 13012KT 1/4SM +RA FG BKN005 OVC008 23/23 A2995 RMK AO2 RAB00 PRESRR P0051 T02280228 $
KFDR 211418Z AUTO 08003KT 1 3/4SM +RA BR OVC005 23/23 A2994 RMK AO2 RAB00 P0008 T02330228 $
KFDR 211402Z AUTO 10003KT 6SM -RA BR BKN005 OVC011 23/23 A2992 RMK AO2 RAB00 CIG 003V008 P0001 T02330228 $
KFDR 211353Z AUTO 07005KT 7SM BKN007 OVC011 23/23 A2992 RMK AO2 RAB20E32 CIG 004V008 SLP117 P0000 T02330228 $
KFDR 211324Z AUTO 11005KT 6SM -RA BR FEW005 OVC014 23/23 A2992 RMK AO2 RAB20 P0000 T02280228 $
KFDR 211253Z AUTO 09004KT 7SM OVC016 23/23 A2991 RMK AO2 RAB1155E06 SLP112 P0000 T02280228 $
KFDR 211228Z AUTO 13005KT 9SM BKN017 BKN022 OVC070 23/23 A2990 RMK AO2 LTG DSNT W RAB1155E06 P0000 T02280228 $
KFDR 211216Z AUTO 14006KT 9SM SCT015 OVC070 23/23 A2990 RMK AO2 RAB1155E06 P0000 T02280228 $
KFDR 211153Z AUTO 14007KT 9SM OVC017 23/23 A2990 RMK AO2 RAB1056E22B34E46 SLP110 P0002 60002 70013 T02280228 10228 20222 53004 $
KFDR 211130Z AUTO 15007KT 9SM BKN019 BKN035 OVC050 23/22 A2990 RMK AO2 RAB1056E22 P0002 T02280222 $
KFDR 211116Z AUTO 15007KT 7SM -RA SCT006 BKN037 OVC070 23/22 A2990 RMK AO2 RAB1056 P0002 T02280222 $
KFDR 211053Z AUTO 15006KT 8SM OVC007 23/22 A2990 RMK AO2 CIG 004V010 SLP105 T02280222 $
KFDR 211038Z AUTO 13005KT 10SM OVC009 23/22 A2990 RMK AO2 CIG 007V014 T02280222 $
KFDR 210953Z AUTO 13007KT 10SM OVC011 23/22 A2989 RMK AO2 SLP100 T02280222 $
KFDR 210853Z AUTO 12005KT 10SM OVC013 23/22 A2989 RMK AO2 SLP102 T02280222 50002 $
KFDR 210813Z AUTO 11005KT 10SM BKN014 OVC040 23/22 A2989 RMK AO2 T02280222 $
KFDR 210753Z AUTO 12005KT 10SM SCT041 OVC050 23/22 A2989 RMK AO2 SLP102 T02280217 $
KFDR 210653Z AUTO 14006KT 10SM CLR 22/21 A2988 RMK AO2 SLP099 T02220211 $
KFDR 210553Z AUTO 15007KT 10SM CLR 22/21 A2988 RMK AO2 SLP099 60005 T02220211 10233 20217 403440217 58001 $
KFDR 210453Z AUTO 15008KT 10SM CLR 22/21 A2989 RMK AO2 SLP102 T02220206 $
KFDR 210353Z AUTO 13008KT 10SM CLR 22/21 A2990 RMK AO2 SLP105 T02170206 $
KFDR 210253Z AUTO 16007KT 10SM CLR 22/21 A2988 RMK AO2 RAE0156 SLP103 P0000 60005 T02220206 51025 $
KFDR 210153Z AUTO 16009KT 10SM -RA FEW110 23/21 A2988 RMK AO2 RAEMMB23 SLP101 P0001 T02280211 $
KFDR 210053Z AUTO 14012KT 10SM -RA FEW055 SCT070 BKN120 23/21 A2987 RMK AO2 PK WND 16036/2356 SLP099 P0004 T02280211 $
KFDR 210007Z AUTO 16022G33KT 3SM RA BR FEW030 SCT065 OVC100 23/22 A2984 RMK AO2 PK WND 16036/2356 LTG DSNT E AND W AND NW P0003 T02280217 $
KFDR 210003Z AUTO 16027G36KT 1 3/4SM -RA BR FEW037 BKN080 OVC100 23/23 A2983 RMK AO2 PK WND 16036/2356 LTG DSNT ALQDS P0003 T02280228 $
KFDR 202353Z AUTO 17033G43KT 1 1/2SM VCTS +RA BR FEW065 BKN100 23/23 A2981 RMK AO2 PK WND 17046/2334 LTG DSNT ALQDS RAB50 SLP079 P0006 60006 T02280228 10344 20228 53002 $
KFDR 202253Z AUTO 17016KT 10SM CLR 33/19 A2978 RMK AO2 PK WND 15029/2231 SLP064 T03330194
KFDR 202153Z AUTO 17012G20KT 10SM CLR 34/19 A2978 RMK AO2 SLP063 T03440194
KFDR 202053Z AUTO 17020G24KT 10SM SCT065 BKN090 34/19 A2980 RMK AO2 SLP071 T03390194 58028
KFDR 201953Z AUTO 20018KT 10SM SCT060 34/20 A2983 RMK AO2 SLP081 T03440200
KFDR 201853Z AUTO 18013G24KT 10SM SCT055 33/20 A2986 RMK AO2 SLP091 T03330200
KFDR 201753Z AUTO 20019G24KT 10SM SCT050 SCT060 32/20 A2989 RMK AO2 PK WND 20026/1715 SLP100 T03170200 10328 20217 58012
KFDR 201653Z AUTO 18016G22KT 10SM CLR 32/20 A2991 RMK AO2 SLP108 T03170200
KFDR 201553Z AUTO 20015G18KT 10SM CLR 30/21 A2992 RMK AO2 SLP113 T03000206
KFDR 201453Z AUTO 19013KT 10SM CLR 28/21 A2992 RMK AO2 SLP114 T02780211 51012
KFDR 201353Z AUTO 17010KT 10SM CLR 25/21 A2992 RMK AO2 SLP114 T02500206
KFDR 201253Z AUTO 18007KT 10SM CLR 23/20 A2989 RMK AO2 SLP104 T02280200
KFDR 201153Z AUTO 17008KT 10SM CLR 22/20 A2989 RMK AO2 SLP101 T02170200 10256 20217 53007
KFDR 201053Z AUTO 18009KT 10SM CLR 23/20 A2988 RMK AO2 SLP096 T02280200
KFDR 200953Z AUTO 16008KT 10SM CLR 23/20 A2987 RMK AO2 SLP096 T02280200
KFDR 200853Z AUTO 16009KT 10SM CLR 23/19 A2986 RMK AO2 SLP093 T02330194 58007
KFDR 200753Z AUTO 15011KT 10SM CLR 24/19 A2987 RMK AO2 SLP096 T02390194
KFDR 200653Z AUTO 15009KT 10SM CLR 24/19 A2989 RMK AO2 SLP101 T02440194
KFDR 200553Z AUTO 16010KT 10SM CLR 26/19 A2989 RMK AO2 SLP101 T02560189 10328 20256 403500217 51011
KFDR 200453Z AUTO 16011KT 10SM CLR 26/19 A2988 RMK AO2 SLP099 T02610189
KFDR 200353Z AUTO 16013KT 10SM CLR 27/18 A2987 RMK AO2 SLP096 T02720183